createdAt,value
2022-10-02T00:01:12.142Z,100723.16
2022-10-02T00:06:22.618Z,100728.59
2022-10-02T00:11:33.046Z,100726.22
2022-10-02T00:16:41.180Z,100721.25
2022-10-02T00:22:03.000Z,100736.41
2022-10-02T00:27:28.160Z,100734.59
2022-10-02T00:32:42.000Z,100727.25
2022-10-02T00:37:53.250Z,100744.50
2022-10-02T00:43:15.946Z,100752.19
2022-10-02T00:54:32.200Z,100741.72
2022-10-02T00:59:54.560Z,100743.16
2022-10-02T01:04:59.925Z,100748.31
2022-10-02T01:10:05.503Z,100752.06
2022-10-02T01:15:13.725Z,100758.88
2022-10-02T01:20:20.723Z,100766.63
2022-10-02T01:25:26.090Z,100768.78
2022-10-02T01:30:31.350Z,100776.88
2022-10-02T01:35:37.851Z,100778.28
2022-10-02T01:40:43.094Z,100768.31
2022-10-02T01:45:58.646Z,100772.25
2022-10-02T01:51:19.235Z,100778.94
2022-10-02T01:56:31.725Z,100776.25
2022-10-02T02:01:48.099Z,100793.31
2022-10-02T02:06:58.619Z,100798.25
2022-10-02T02:12:14.197Z,100790.25
2022-10-02T02:17:25.097Z,100795.22
2022-10-02T02:22:31.851Z,100805.34
2022-10-02T02:27:42.168Z,100803.84
2022-10-02T02:32:49.352Z,100804.84
2022-10-02T02:37:56.926Z,100801.22
2022-10-02T02:43:07.171Z,100803.53
2022-10-02T02:48:20.835Z,100808.69
2022-10-02T02:53:28.857Z,100806.34
2022-10-02T02:58:38.599Z,100810.72
2022-10-02T03:03:42.406Z,100817.66
2022-10-02T03:08:48.418Z,100814.63
2022-10-02T03:14:06.396Z,100811.59
2022-10-02T03:19:25.073Z,100811.16
2022-10-02T03:24:36.935Z,100817.72
2022-10-02T03:29:50.494Z,100836.50
2022-10-02T03:34:54.424Z,100826.19
2022-10-02T03:40:01.027Z,100836.47
2022-10-02T03:45:07.445Z,100842.84
2022-10-02T03:50:19.848Z,100847.38
2022-10-02T03:55:31.502Z,100836.03
2022-10-02T04:00:39.944Z,100843.94
2022-10-02T04:05:48.574Z,100848.31
2022-10-02T04:11:01.139Z,100855.34
2022-10-02T04:16:11.260Z,100856.94
2022-10-02T04:21:22.467Z,100862.56
2022-10-02T04:26:29.867Z,100871.34
2022-10-02T04:31:35.132Z,100877.00
2022-10-02T04:36:46.656Z,100879.44
2022-10-02T04:42:09.025Z,100886.22
2022-10-02T04:47:38.153Z,100877.16
2022-10-02T04:52:55.985Z,100881.72
2022-10-02T04:58:34.856Z,100888.47
2022-10-02T05:03:58.752Z,100898.94
2022-10-02T05:09:12.860Z,100895.31
2022-10-02T05:14:31.806Z,100902.16
2022-10-02T05:19:51.583Z,100899.16
2022-10-02T05:25:15.684Z,100899.72
2022-10-02T05:30:20.330Z,100902.53
2022-10-02T05:35:46.018Z,100906.91
2022-10-02T05:41:01.800Z,100900.91
2022-10-02T05:46:15.390Z,100902.97
2022-10-02T05:51:32.387Z,100908.00
2022-10-02T05:56:43.389Z,100903.22
2022-10-02T06:01:50.181Z,100901.13
2022-10-02T06:06:58.203Z,100904.00
2022-10-02T06:12:05.292Z,100901.88
2022-10-02T06:17:12.421Z,100907.44
2022-10-02T06:22:21.584Z,100911.22
2022-10-02T06:27:33.557Z,100917.75
2022-10-02T06:32:42.894Z,100902.25
2022-10-02T06:38:00.845Z,100906.13
2022-10-02T06:43:11.839Z,100909.31
2022-10-02T06:48:25.802Z,100902.38
2022-10-02T06:53:57.031Z,100908.50
2022-10-02T06:59:11.729Z,100911.97
2022-10-02T07:04:30.497Z,100924.69
2022-10-02T07:09:59.627Z,100920.25
2022-10-02T07:15:22.754Z,100922.41
2022-10-02T07:20:34.427Z,100925.78
2022-10-02T07:25:53.462Z,100923.75
2022-10-02T07:31:02.460Z,100916.69
2022-10-02T07:36:12.718Z,100908.09
2022-10-02T07:41:34.260Z,100915.78
2022-10-02T07:46:47.447Z,100912.13
2022-10-02T07:51:57.574Z,100904.66
2022-10-02T07:57:12.612Z,100910.81
2022-10-02T08:02:24.722Z,100905.06
2022-10-02T08:07:30.633Z,100912.06
2022-10-02T08:12:40.947Z,100896.59
2022-10-02T08:17:50.437Z,100901.66
2022-10-02T08:23:02.470Z,100896.38
2022-10-02T08:28:16.989Z,100890.69
2022-10-02T08:33:22.077Z,100891.47
2022-10-02T08:38:37.154Z,100901.59
2022-10-02T08:44:10.458Z,100899.81
2022-10-02T08:49:58.112Z,100898.69
2022-10-02T08:55:25.924Z,100901.34
2022-10-02T09:00:46.124Z,100900.38
2022-10-02T09:06:17.135Z,100905.94
2022-10-02T09:12:10.285Z,100909.38
2022-10-02T09:17:43.814Z,100919.00
2022-10-02T09:23:07.902Z,100917.34
2022-10-02T09:28:44.587Z,100913.06
2022-10-02T09:34:16.998Z,100922.06
2022-10-02T09:39:53.111Z,100927.34
2022-10-02T09:45:28.410Z,100923.91
2022-10-02T09:51:22.538Z,100929.56
2022-10-02T09:56:56.342Z,100930.69
2022-10-02T10:02:34.903Z,100933.31
2022-10-02T10:08:01.537Z,100932.25
2022-10-02T10:13:52.350Z,100921.00
2022-10-02T10:19:22.146Z,100920.06
2022-10-02T10:24:53.144Z,100920.38
2022-10-02T10:30:17.815Z,100931.84
2022-10-02T10:35:45.057Z,100941.34
2022-10-02T10:41:05.638Z,100929.94
2022-10-02T10:46:33.465Z,100936.81
2022-10-02T10:51:42.166Z,100944.53
2022-10-02T10:56:51.023Z,100937.88
2022-10-02T11:02:13.129Z,100934.69
2022-10-02T11:07:40.706Z,100940.75
2022-10-02T11:13:19.093Z,100946.72
2022-10-02T11:18:48.455Z,100946.94
2022-10-02T11:24:23.606Z,100933.09
2022-10-02T11:29:52.516Z,100943.19
2022-10-02T11:35:30.975Z,100951.28
2022-10-02T11:40:47.954Z,100943.72
2022-10-02T11:46:15.039Z,100949.03
2022-10-02T11:52:05.283Z,100956.88
2022-10-02T11:57:31.106Z,100959.38
2022-10-02T12:02:39.622Z,100961.75
2022-10-02T12:07:54.347Z,100971.50
2022-10-02T12:13:33.321Z,100968.88
2022-10-02T12:18:58.481Z,100978.72
2022-10-02T12:24:12.888Z,100985.81
2022-10-02T12:29:23.010Z,100981.88
2022-10-02T12:34:40.965Z,100985.31
2022-10-02T12:39:54.568Z,100993.53
2022-10-02T12:45:24.051Z,100998.28
2022-10-02T12:50:50.226Z,101000.31
2022-10-02T12:56:43.976Z,101006.50
2022-10-02T13:02:59.938Z,101018.06
2022-10-02T13:08:29.910Z,101027.03
2022-10-02T13:13:57.668Z,101033.38
2022-10-02T13:19:14.705Z,101039.75
2022-10-02T13:24:33.972Z,101046.75
2022-10-02T13:29:47.854Z,101051.22
2022-10-02T13:35:16.320Z,101056.53
2022-10-02T13:40:28.657Z,101057.75
2022-10-02T13:45:39.019Z,101058.84
2022-10-02T13:50:53.438Z,101068.91
2022-10-02T13:56:05.131Z,101078.53
2022-10-02T14:01:24.007Z,101074.72
2022-10-02T14:06:33.969Z,101081.16
2022-10-02T14:11:54.611Z,101082.38
2022-10-02T14:17:08.032Z,101094.88
2022-10-02T14:22:30.160Z,101100.09
2022-10-02T14:28:16.354Z,101112.69
2022-10-02T14:33:32.091Z,101116.75
2022-10-02T14:38:49.018Z,101118.31
2022-10-02T14:44:13.976Z,101131.97
2022-10-02T14:49:41.250Z,101140.63
2022-10-02T14:54:59.893Z,101137.31
2022-10-02T15:00:42.568Z,101153.16
2022-10-02T15:06:10.798Z,101154.59
2022-10-02T15:11:25.289Z,101168.44
2022-10-02T15:16:43.582Z,101169.13
2022-10-02T15:21:58.960Z,101174.63
2022-10-02T15:27:18.668Z,101179.47
2022-10-02T15:32:56.446Z,101180.41
2022-10-02T15:38:21.490Z,101187.38
2022-10-02T15:43:42.533Z,101187.41
2022-10-02T15:49:00.892Z,101190.28
2022-10-02T15:54:22.843Z,101203.94
2022-10-02T15:59:40.080Z,101206.44
2022-10-02T16:04:59.380Z,101225.16
2022-10-02T16:10:18.730Z,101223.38
2022-10-02T16:15:27.306Z,101238.44
2022-10-02T16:20:52.279Z,101245.88
2022-10-02T16:26:14.630Z,101249.88
2022-10-02T16:31:42.282Z,101255.00
2022-10-02T16:36:52.290Z,101261.53
2022-10-02T16:42:13.296Z,101262.84
2022-10-02T16:47:27.216Z,101274.47
2022-10-02T16:52:38.591Z,101270.09
2022-10-02T16:58:12.831Z,101275.88
2022-10-02T17:03:26.032Z,101287.22
2022-10-02T17:08:37.500Z,101287.78
2022-10-02T17:13:58.210Z,101289.38
2022-10-02T17:19:14.369Z,101300.72
2022-10-02T17:24:44.447Z,101295.03
2022-10-02T17:30:15.839Z,101299.69
2022-10-02T17:35:37.427Z,101296.06
2022-10-02T17:40:51.051Z,101293.03
2022-10-02T17:46:06.203Z,101295.06
2022-10-02T17:51:51.230Z,101295.44
2022-10-02T17:57:16.096Z,101302.38
2022-10-02T18:02:37.365Z,101299.81
2022-10-02T18:07:57.611Z,101309.91
2022-10-02T18:13:30.447Z,101318.03
2022-10-02T18:18:40.872Z,101309.03
2022-10-02T18:24:02.600Z,101314.59
2022-10-02T18:29:36.002Z,101316.00
2022-10-02T18:35:09.731Z,101306.63
2022-10-02T18:40:24.459Z,101304.41
2022-10-02T18:45:47.049Z,101312.84
2022-10-02T18:51:05.439Z,101317.47
2022-10-02T18:56:09.780Z,101309.97
2022-10-02T19:01:43.637Z,101302.81
2022-10-02T19:06:52.882Z,101296.28
2022-10-02T19:11:58.104Z,101291.31
2022-10-02T19:17:02.072Z,101294.53
2022-10-02T19:22:19.711Z,101282.72
2022-10-02T19:27:30.057Z,101276.94
2022-10-02T19:32:37.048Z,101274.63
2022-10-02T19:37:44.646Z,101271.25
2022-10-02T19:42:50.801Z,101268.84
2022-10-02T19:47:58.901Z,101264.88
2022-10-02T19:53:07.567Z,101260.19
2022-10-02T19:58:19.345Z,101255.22
2022-10-02T20:03:25.077Z,101256.28
2022-10-02T20:08:34.019Z,101251.78
2022-10-02T20:13:44.145Z,101256.47
2022-10-02T20:18:48.354Z,101246.66
2022-10-02T20:23:57.211Z,101246.47
2022-10-02T20:29:03.507Z,101246.84
2022-10-02T20:34:20.923Z,101245.00
2022-10-02T20:39:30.216Z,101236.56
2022-10-02T20:44:35.690Z,101226.38
2022-10-02T20:50:10.902Z,101225.66
2022-10-02T20:55:24.735Z,101225.03
2022-10-02T21:00:28.930Z,101228.44
2022-10-02T21:06:09.497Z,101209.66
2022-10-02T21:11:29.012Z,101212.41
2022-10-02T21:17:07.474Z,101209.00
2022-10-02T21:22:37.746Z,101204.25
2022-10-02T21:28:28.656Z,101198.06
2022-10-02T21:33:40.079Z,101194.34
2022-10-02T21:39:19.745Z,101181.28
2022-10-02T21:45:22.730Z,101177.72
2022-10-02T21:51:07.931Z,101173.81
2022-10-02T21:56:52.488Z,101171.41
2022-10-02T22:02:28.489Z,101162.44
2022-10-02T22:07:38.065Z,101161.16
2022-10-02T22:12:58.266Z,101153.59
2022-10-02T22:18:16.690Z,101157.34
2022-10-02T22:23:42.243Z,101148.19
2022-10-02T22:28:49.391Z,101146.88
2022-10-02T22:34:06.305Z,101158.31
2022-10-02T22:39:15.328Z,101151.81
2022-10-02T22:44:24.387Z,101149.91
2022-10-02T22:49:38.247Z,101137.50
2022-10-02T22:54:47.419Z,101140.53
2022-10-02T22:59:58.334Z,101141.94
2022-10-02T23:05:10.543Z,101143.59
2022-10-02T23:10:22.723Z,101138.47
2022-10-02T23:15:38.085Z,101139.53
2022-10-02T23:20:51.089Z,101140.66
2022-10-02T23:26:01.204Z,101138.00
2022-10-02T23:31:18.209Z,101138.22
2022-10-02T23:36:29.962Z,101133.97
2022-10-02T23:41:35.656Z,101139.28
2022-10-02T23:47:02.583Z,101133.38
2022-10-02T23:52:27.085Z,101134.72
2022-10-02T23:57:57.071Z,101136.84
